Time;durP1;ratioP1;P1;durP2;ratioP2;P2;SDS_P1;SDS_P2;PMS_P1;PMS_P2;Temp;Humidity;BMP_temperature;BMP_pressure;BME280_temperature;BME280_humidity;BME280_pressure;Samples;Min_cycle;Max_cycle;Signal;HPM_P1;HPM_P2
2021/04/19 00:00:55;;;;;;;33.72;17.92;;;;;;;;;;5092256;28;20126;-79
2021/04/19 00:03:20;;;;;;;33.10;16.73;;;;;;;;;;5086131;28;20040;-81
2021/04/19 00:05:45;;;;;;;30.38;16.25;;;;;;;;;;5091197;28;20091;-81
2021/04/19 00:08:10;;;;;;;35.28;17.75;;;;;;;;;;5082778;28;20047;-79
2021/04/19 00:10:36;;;;;;;31.42;16.83;;;;;;;;;;5080295;28;20024;-81
2021/04/19 00:13:02;;;;;;;33.13;17.80;;;;;;;;;;5085696;28;20049;-80
2021/04/19 00:15:29;;;;;;;31.48;15.98;;;;;;;;;;5090878;28;20106;-80
2021/04/19 00:17:54;;;;;;;34.58;17.00;;;;;;;;;;5078810;28;20040;-81
2021/04/19 00:20:20;;;;;;;31.85;17.25;;;;;;;;;;5080279;28;20024;-80
2021/04/19 00:22:45;;;;;;;32.35;17.48;;;;;;;;;;5081098;28;20016;-80
2021/04/19 00:25:10;;;;;;;28.92;15.23;;;;;;;;;;5076846;28;20391;-81
2021/04/19 00:27:36;;;;;;;31.67;17.13;;;;;;;;;;5078294;28;20257;-81
2021/04/19 00:30:02;;;;;;;34.83;17.38;;;;;;;;;;5090630;28;20083;-81
2021/04/19 00:32:27;;;;;;;29.50;15.80;;;;;;;;;;5082155;28;20022;-81
2021/04/19 00:34:52;;;;;;;27.42;14.82;;;;;;;;;;5075130;28;20028;-81
2021/04/19 00:37:18;;;;;;;31.75;16.45;;;;;;;;;;5079189;28;20360;-81
2021/04/19 00:39:43;;;;;;;31.67;17.52;;;;;;;;;;5082583;28;20028;-81
2021/04/19 00:42:09;;;;;;;30.35;16.60;;;;;;;;;;5088683;28;20103;-81
2021/04/19 00:44:35;;;;;;;33.00;16.17;;;;;;;;;;5083328;28;20016;-82
2021/04/19 00:47:00;;;;;;;31.48;16.35;;;;;;;;;;5080920;28;20035;-81
2021/04/19 00:49:26;;;;;;;28.75;15.88;;;;;;;;;;5077655;28;20452;-81
2021/04/19 00:51:52;;;;;;;29.48;15.52;;;;;;;;;;5071149;28;20030;-81
2021/04/19 00:54:17;;;;;;;30.30;16.90;;;;;;;;;;5084526;28;20659;-82
2021/04/19 00:56:43;;;;;;;34.10;17.33;;;;;;;;;;5080746;28;20036;-81
2021/04/19 00:59:08;;;;;;;30.40;15.60;;;;;;;;;;5095840;28;20039;-80
2021/04/19 01:01:33;;;;;;;31.08;16.55;;;;;;;;;;5096085;28;20084;-81
2021/04/19 01:03:59;;;;;;;29.83;15.95;;;;;;;;;;5084902;28;20368;-81
2021/04/19 01:06:24;;;;;;;32.25;16.40;;;;;;;;;;5082359;28;20039;-81
2021/04/19 01:08:49;;;;;;;36.05;15.65;;;;;;;;;;5061606;28;20029;-80
2021/04/19 01:11:15;;;;;;;29.05;15.60;;;;;;;;;;5090753;28;20032;-81
2021/04/19 01:13:40;;;;;;;31.60;16.10;;;;;;;;;;5078073;28;20403;-81
2021/04/19 01:16:05;;;;;;;30.35;16.75;;;;;;;;;;5087300;28;20028;-81
2021/04/19 01:18:30;;;;;;;30.23;16.65;;;;;;;;;;5078274;28;20503;-81
2021/04/19 01:20:57;;;;;;;33.38;17.70;;;;;;;;;;5078247;28;20481;-80
2021/04/19 01:23:22;;;;;;;30.10;16.65;;;;;;;;;;5083231;28;20028;-80
2021/04/19 01:25:47;;;;;;;31.90;16.20;;;;;;;;;;5086864;28;20051;-81
2021/04/19 01:28:16;;;;;;;32.40;16.63;;;;;;;;;;5062574;28;20102;-80
2021/04/19 01:30:42;;;;;;;30.10;16.50;;;;;;;;;;5076085;28;20020;-81
2021/04/19 01:33:08;;;;;;;32.25;16.67;;;;;;;;;;5078095;28;20084;-79
2021/04/19 01:35:35;;;;;;;29.15;15.57;;;;;;;;;;5081049;28;20062;-79
2021/04/19 01:38:00;;;;;;;28.40;15.15;;;;;;;;;;5059588;28;20451;-81
2021/04/19 01:40:29;;;;;;;29.63;14.95;;;;;;;;;;5078746;28;20032;-79
2021/04/19 01:42:54;;;;;;;27.95;14.70;;;;;;;;;;5079622;28;20128;-81
2021/04/19 01:45:20;;;;;;;28.33;15.43;;;;;;;;;;5078055;28;20039;-81
2021/04/19 01:47:45;;;;;;;31.33;15.75;;;;;;;;;;5084615;28;20053;-79
2021/04/19 01:50:12;;;;;;;30.80;15.70;;;;;;;;;;5076720;28;20024;-81
2021/04/19 01:52:37;;;;;;;32.25;17.00;;;;;;;;;;5075901;28;20020;-80
2021/04/19 01:55:05;;;;;;;30.02;16.20;;;;;;;;;;5089241;28;20432;-80
2021/04/19 01:57:30;;;;;;;28.60;15.38;;;;;;;;;;5077765;28;20051;-80
2021/04/19 01:59:56;;;;;;;28.98;16.13;;;;;;;;;;5088102;28;20470;-81
2021/04/19 02:02:31;;;;;;;30.15;16.00;;;;;;;;;;5082010;28;20021;-79
2021/04/19 02:05:09;;;;;;;30.60;16.25;;;;;;;;;;5089197;28;20125;-81
2021/04/19 02:07:37;;;;;;;26.98;14.30;;;;;;;;;;5101149;28;20032;-78
2021/04/19 02:10:14;;;;;;;29.40;15.40;;;;;;;;;;5087008;28;20031;-81
2021/04/19 02:12:44;;;;;;;29.67;15.50;;;;;;;;;;5061261;28;20024;-82
2021/04/19 02:15:15;;;;;;;31.63;15.70;;;;;;;;;;5079733;28;20112;-80
2021/04/19 02:17:48;;;;;;;28.38;15.23;;;;;;;;;;5073924;28;20035;-81
2021/04/19 02:20:27;;;;;;;30.95;16.38;;;;;;;;;;5073560;28;20021;-80
2021/04/19 02:22:53;;;;;;;29.17;16.17;;;;;;;;;;5076693;28;20117;-81
2021/04/19 02:25:25;;;;;;;29.45;15.80;;;;;;;;;;5077718;28;20070;-80
2021/04/19 02:27:54;;;;;;;30.77;16.27;;;;;;;;;;5076009;28;20044;-79
2021/04/19 02:30:21;;;;;;;31.75;17.80;;;;;;;;;;5059986;28;20039;-81
2021/04/19 02:32:49;;;;;;;28.20;15.38;;;;;;;;;;5059196;28;20045;-81
2021/04/19 02:35:17;;;;;;;32.38;16.40;;;;;;;;;;5086773;28;20043;-81
2021/04/19 02:37:43;;;;;;;29.83;16.40;;;;;;;;;;5087228;28;20401;-83
2021/04/19 02:40:09;;;;;;;29.58;16.25;;;;;;;;;;5082135;28;20016;-83
2021/04/19 02:42:38;;;;;;;30.45;15.90;;;;;;;;;;5082209;28;20020;-80
2021/04/19 02:45:04;;;;;;;29.85;14.90;;;;;;;;;;5077014;28;20603;-82
2021/04/19 02:47:30;;;;;;;31.27;15.95;;;;;;;;;;5075937;28;20394;-81
2021/04/19 02:49:55;;;;;;;30.70;15.95;;;;;;;;;;5081024;28;20028;-81
2021/04/19 02:52:21;;;;;;;31.75;16.15;;;;;;;;;;5073945;28;20020;-81
2021/04/19 02:54:46;;;;;;;29.83;16.38;;;;;;;;;;5081645;28;20032;-82
2021/04/19 02:57:22;;;;;;;33.33;17.70;;;;;;;;;;5085410;28;20032;-81
2021/04/19 02:59:48;;;;;;;30.30;17.25;;;;;;;;;;5085888;28;20027;-82
2021/04/19 03:02:13;;;;;;;31.98;17.15;;;;;;;;;;5065703;28;20033;-81
2021/04/19 03:04:41;;;;;;;32.78;17.10;;;;;;;;;;5083565;28;20146;-82
2021/04/19 03:07:08;;;;;;;30.70;17.38;;;;;;;;;;5077325;28;20479;-81
2021/04/19 03:09:34;;;;;;;30.58;16.67;;;;;;;;;;5075545;28;20072;-83
2021/04/19 03:12:03;;;;;;;31.85;16.80;;;;;;;;;;5093711;28;20092;-83
2021/04/19 03:14:32;;;;;;;28.92;14.73;;;;;;;;;;5075451;28;20079;-81
2021/04/19 03:17:01;;;;;;;28.15;15.68;;;;;;;;;;5081455;28;20394;-81
2021/04/19 03:19:28;;;;;;;29.38;15.30;;;;;;;;;;5086766;28;20086;-83
2021/04/19 03:21:53;;;;;;;28.60;14.85;;;;;;;;;;5082506;28;20027;-82
2021/04/19 03:24:19;;;;;;;30.80;15.65;;;;;;;;;;5082317;28;20024;-82
2021/04/19 03:26:45;;;;;;;29.52;15.50;;;;;;;;;;5089294;28;20309;-81
2021/04/19 03:29:10;;;;;;;31.30;16.27;;;;;;;;;;5075589;28;20032;-82
2021/04/19 03:31:38;;;;;;;30.38;15.32;;;;;;;;;;5061563;28;20032;-80
2021/04/19 03:34:30;;;;;;;32.38;16.08;;;;;;;;;;5076722;28;20048;-82
2021/04/19 03:36:57;;;;;;;31.13;15.48;;;;;;;;;;5087340;28;20036;-81
2021/04/19 03:39:23;;;;;;;33.08;17.77;;;;;;;;;;5083267;28;20032;-80
2021/04/19 03:41:50;;;;;;;30.13;16.27;;;;;;;;;;5086601;28;20040;-81
2021/04/19 03:44:18;;;;;;;34.40;17.63;;;;;;;;;;5110037;28;20008;-80
2021/04/19 03:46:43;;;;;;;32.38;16.83;;;;;;;;;;5103097;28;20090;-82
2021/04/19 03:49:14;;;;;;;34.08;16.63;;;;;;;;;;5089277;28;20425;-80
2021/04/19 03:51:41;;;;;;;33.30;17.23;;;;;;;;;;5090265;28;20413;-78
2021/04/19 03:54:07;;;;;;;30.08;15.30;;;;;;;;;;5077944;28;20036;-80
2021/04/19 03:56:34;;;;;;;31.77;17.50;;;;;;;;;;5073880;28;20027;-79
2021/04/19 03:59:00;;;;;;;30.70;15.93;;;;;;;;;;5078946;28;20069;-81
2021/04/19 04:01:26;;;;;;;34.63;17.73;;;;;;;;;;5083742;28;20032;-79
2021/04/19 04:03:52;;;;;;;29.05;15.85;;;;;;;;;;5083390;28;20382;-80
2021/04/19 04:06:17;;;;;;;31.20;15.80;;;;;;;;;;5081117;28;20039;-80
2021/04/19 04:08:42;;;;;;;34.65;17.23;;;;;;;;;;5081016;28;20016;-80
2021/04/19 04:11:09;;;;;;;29.98;16.20;;;;;;;;;;5074685;28;20115;-80
2021/04/19 04:13:34;;;;;;;33.85;16.52;;;;;;;;;;5074450;28;20446;-80
2021/04/19 04:16:00;;;;;;;34.92;17.85;;;;;;;;;;5094427;28;20017;-82
2021/04/19 04:18:26;;;;;;;35.33;17.42;;;;;;;;;;5103559;28;20030;-82
2021/04/19 04:20:51;;;;;;;33.30;17.65;;;;;;;;;;5087391;28;20031;-81
2021/04/19 04:23:17;;;;;;;32.30;15.32;;;;;;;;;;5088040;28;20020;-81
2021/04/19 04:25:44;;;;;;;29.40;15.55;;;;;;;;;;5072277;28;20066;-80
2021/04/19 04:28:09;;;;;;;31.95;16.02;;;;;;;;;;5084071;28;20021;-81
2021/04/19 04:30:35;;;;;;;34.72;17.17;;;;;;;;;;5079132;28;20047;-82
2021/04/19 04:33:02;;;;;;;32.60;16.95;;;;;;;;;;5079626;28;20113;-80
2021/04/19 04:35:27;;;;;;;34.65;18.48;;;;;;;;;;5078463;28;20059;-81
2021/04/19 04:37:52;;;;;;;35.90;17.73;;;;;;;;;;5084590;28;20844;-82
2021/04/19 04:40:18;;;;;;;28.45;15.50;;;;;;;;;;5086837;28;20497;-83
2021/04/19 04:42:43;;;;;;;29.83;16.90;;;;;;;;;;5059770;28;20028;-79
2021/04/19 04:45:09;;;;;;;35.90;18.40;;;;;;;;;;5079631;28;20149;-80
2021/04/19 04:47:39;;;;;;;32.45;16.92;;;;;;;;;;5074454;28;20048;-84
2021/04/19 04:50:10;;;;;;;31.55;16.80;;;;;;;;;;5066286;28;20020;-90
2021/04/19 04:52:49;;;;;;;32.83;17.55;;;;;;;;;;5058921;28;20031;-83
2021/04/19 04:55:15;;;;;;;29.53;16.23;;;;;;;;;;5052028;28;20097;-86
2021/04/19 04:57:43;;;;;;;33.75;17.90;;;;;;;;;;5063785;28;20373;-86
2021/04/19 05:00:09;;;;;;;35.95;18.58;;;;;;;;;;5072919;28;20503;-84
2021/04/19 05:02:35;;;;;;;33.90;18.20;;;;;;;;;;5062713;28;20465;-86
2021/04/19 05:05:00;;;;;;;39.13;17.60;;;;;;;;;;5072637;28;20024;-85
2021/04/19 05:07:28;;;;;;;31.67;17.55;;;;;;;;;;5065422;28;20044;-86
2021/04/19 05:09:53;;;;;;;33.97;17.45;;;;;;;;;;5089768;28;20028;-87
2021/04/19 05:12:19;;;;;;;34.22;17.42;;;;;;;;;;5087160;28;20418;-87
2021/04/19 05:14:57;;;;;;;34.22;17.15;;;;;;;;;;5096987;28;20039;-86
2021/04/19 05:17:22;;;;;;;33.88;16.63;;;;;;;;;;5082157;28;20026;-84
2021/04/19 05:19:47;;;;;;;30.23;15.98;;;;;;;;;;5075718;28;20467;-85
2021/04/19 05:22:12;;;;;;;29.88;16.13;;;;;;;;;;5097588;28;20394;-86
2021/04/19 05:24:38;;;;;;;28.83;16.50;;;;;;;;;;5099073;28;20020;-88
2021/04/19 05:27:03;;;;;;;34.45;17.52;;;;;;;;;;5078482;28;20024;-91
2021/04/19 05:29:30;;;;;;;30.95;16.13;;;;;;;;;;5091755;28;20056;-86
2021/04/19 05:31:55;;;;;;;32.45;17.33;;;;;;;;;;5082154;28;20027;-91
2021/04/19 05:34:20;;;;;;;35.03;18.42;;;;;;;;;;5094458;28;20044;-89
2021/04/19 05:36:47;;;;;;;34.70;17.92;;;;;;;;;;5092332;28;20024;-87
2021/04/19 05:39:12;;;;;;;35.35;17.88;;;;;;;;;;5067193;28;20039;-84
2021/04/19 05:41:38;;;;;;;30.98;16.42;;;;;;;;;;5083561;28;20474;-86
2021/04/19 05:44:03;;;;;;;28.85;15.73;;;;;;;;;;5070826;28;20020;-82
2021/04/19 05:46:29;;;;;;;31.70;17.13;;;;;;;;;;5081440;28;20062;-84
2021/04/19 05:48:54;;;;;;;33.55;17.77;;;;;;;;;;5078671;28;20031;-83
2021/04/19 05:51:27;;;;;;;31.92;16.48;;;;;;;;;;5079675;28;20073;-83
2021/04/19 05:53:55;;;;;;;31.25;17.05;;;;;;;;;;5084822;28;20097;-83
2021/04/19 05:56:39;;;;;;;31.63;17.88;;;;;;;;;;5092545;28;20104;-85
2021/04/19 05:59:22;;;;;;;31.73;16.40;;;;;;;;;;5086089;28;20069;-90
2021/04/19 06:01:50;;;;;;;29.35;16.63;;;;;;;;;;5082263;28;20110;-90
2021/04/19 06:04:34;;;;;;;32.63;16.15;;;;;;;;;;5078453;28;20122;-91
2021/04/19 06:07:03;;;;;;;31.08;16.85;;;;;;;;;;5098448;28;20058;-91
2021/04/19 06:09:29;;;;;;;;;;;;;;;;;;5098302;28;20032;-89
2021/04/19 06:11:57;;;;;;;27.63;17.10;;;;;;;;;;5070179;28;19975;-89
2021/04/19 06:14:25;;;;;;;26.90;14.45;;;;;;;;;;5073394;28;20339;-93
2021/04/19 06:16:53;;;;;;;26.13;14.73;;;;;;;;;;5077610;28;20028;-87
2021/04/19 06:19:23;;;;;;;27.23;15.73;;;;;;;;;;5097617;28;20463;-89
2021/04/19 06:21:49;;;;;;;25.98;14.82;;;;;;;;;;5066992;28;20391;-87
2021/04/19 06:24:16;;;;;;;24.88;14.40;;;;;;;;;;5082849;28;20020;-85
2021/04/19 06:26:41;;;;;;;26.67;15.27;;;;;;;;;;5098173;28;20008;-88
2021/04/19 06:29:08;;;;;;;27.27;15.43;;;;;;;;;;5083912;28;20076;-86
2021/04/19 06:31:34;;;;;;;28.60;16.35;;;;;;;;;;5068824;28;20111;-87
2021/04/19 06:34:09;;;;;;;31.45;15.68;;;;;;;;;;5075372;28;20110;-88
2021/04/19 06:36:35;;;;;;;31.95;16.35;;;;;;;;;;5066283;28;20091;-86
2021/04/19 06:39:01;;;;;;;30.38;15.90;;;;;;;;;;5059990;28;20436;-89
2021/04/19 06:41:26;;;;;;;30.33;17.00;;;;;;;;;;5060251;28;20048;-88
2021/04/19 06:43:52;;;;;;;28.50;14.93;;;;;;;;;;5064053;28;20050;-88
2021/04/19 06:46:18;;;;;;;32.70;18.38;;;;;;;;;;5073430;28;20043;-86
2021/04/19 06:48:43;;;;;;;31.20;16.33;;;;;;;;;;5096447;28;20020;-89
2021/04/19 06:51:10;;;;;;;31.45;16.38;;;;;;;;;;5095546;28;20026;-89
2021/04/19 06:53:36;;;;;;;28.40;15.88;;;;;;;;;;5060273;28;20028;-88
2021/04/19 06:56:01;;;;;;;29.83;15.15;;;;;;;;;;5095727;28;20116;-88
2021/04/19 06:58:28;;;;;;;30.30;16.25;;;;;;;;;;5083022;28;20091;-89
2021/04/19 07:00:54;;;;;;;31.80;16.17;;;;;;;;;;5084883;28;20024;-88
2021/04/19 07:03:20;;;;;;;28.17;16.00;;;;;;;;;;5082623;28;20024;-87
2021/04/19 07:05:50;;;;;;;29.73;15.77;;;;;;;;;;5077511;28;20028;-88
2021/04/19 07:08:20;;;;;;;27.60;15.60;;;;;;;;;;5079345;28;20386;-89
2021/04/19 07:10:45;;;;;;;;;;;;;;;;;;5077769;28;20532;-87
2021/04/19 07:13:11;;;;;;;34.95;16.83;;;;;;;;;;5058611;28;19905;-88
2021/04/19 07:15:38;;;;;;;30.35;16.80;;;;;;;;;;5057894;28;20012;-88
2021/04/19 07:18:05;;;;;;;27.85;15.05;;;;;;;;;;5077600;28;20120;-88
2021/04/19 07:20:31;;;;;;;28.20;16.45;;;;;;;;;;5085273;28;20021;-89
2021/04/19 07:22:56;;;;;;;27.80;14.77;;;;;;;;;;5079930;28;20497;-86
2021/04/19 07:25:21;;;;;;;27.67;16.65;;;;;;;;;;5086504;28;20024;-89
2021/04/19 07:27:47;;;;;;;30.75;17.00;;;;;;;;;;5098240;28;20036;-87
2021/04/19 07:30:13;;;;;;;25.40;13.13;;;;;;;;;;5071467;28;20009;-91
2021/04/19 07:32:40;;;;;;;27.85;15.35;;;;;;;;;;5078139;28;20036;-84
2021/04/19 07:35:06;;;;;;;25.35;14.55;;;;;;;;;;5079223;28;20048;-87
2021/04/19 07:37:32;;;;;;;27.42;16.80;;;;;;;;;;5113607;28;20056;-89
2021/04/19 07:39:58;;;;;;;27.27;15.95;;;;;;;;;;5081932;28;20005;-87
2021/04/19 07:42:23;;;;;;;30.30;15.45;;;;;;;;;;5085911;28;20023;-89
2021/04/19 07:44:49;;;;;;;27.38;15.02;;;;;;;;;;5091221;28;20031;-89
2021/04/19 07:47:19;;;;;;;27.92;14.73;;;;;;;;;;5071987;28;20020;-90
2021/04/19 07:50:06;;;;;;;28.27;15.07;;;;;;;;;;5102552;28;20030;-89
2021/04/19 07:52:35;;;;;;;26.20;16.00;;;;;;;;;;5102765;28;20032;-89
2021/04/19 07:55:06;;;;;;;27.60;16.02;;;;;;;;;;5103420;28;20036;-89
2021/04/19 07:57:32;;;;;;;30.38;14.65;;;;;;;;;;5087769;28;20021;-90
2021/04/19 07:59:58;;;;;;;27.05;14.88;;;;;;;;;;5073335;28;20040;-90
2021/04/19 08:02:25;;;;;;;27.38;14.50;;;;;;;;;;5104298;28;20073;-90
2021/04/19 08:04:51;;;;;;;23.67;13.23;;;;;;;;;;5107695;28;20035;-89
2021/04/19 08:07:18;;;;;;;26.83;14.38;;;;;;;;;;5094114;28;20019;-91
2021/04/19 08:09:54;;;;;;;25.30;14.38;;;;;;;;;;5097047;28;20056;-88
2021/04/19 08:12:40;;;;;;;30.13;15.38;;;;;;;;;;5101811;28;20012;-88
2021/04/19 08:15:10;;;;;;;29.48;15.80;;;;;;;;;;5091314;28;20044;-90
2021/04/19 08:17:36;;;;;;;26.63;14.93;;;;;;;;;;5080469;28;20020;-90
2021/04/19 08:20:05;;;;;;;25.10;15.10;;;;;;;;;;5088190;28;20028;-88
2021/04/19 08:22:31;;;;;;;25.48;15.02;;;;;;;;;;5092606;28;20024;-90
2021/04/19 08:25:12;;;;;;;26.33;14.60;;;;;;;;;;5072571;28;20100;-84
2021/04/19 08:27:37;;;;;;;23.42;12.77;;;;;;;;;;5072894;28;20457;-88
2021/04/19 08:30:04;;;;;;;24.60;13.73;;;;;;;;;;5063085;28;20032;-87
2021/04/19 08:32:30;;;;;;;23.90;14.60;;;;;;;;;;5079591;28;20027;-85
2021/04/19 08:34:56;;;;;;;22.52;11.45;;;;;;;;;;5064305;28;20048;-85
2021/04/19 08:37:26;;;;;;;25.50;13.20;;;;;;;;;;5094261;28;20039;-85
2021/04/19 08:39:51;;;;;;;22.58;13.30;;;;;;;;;;5094349;28;20025;-87
2021/04/19 08:42:17;;;;;;;21.80;13.68;;;;;;;;;;5080014;28;20057;-87
2021/04/19 08:44:44;;;;;;;24.17;14.63;;;;;;;;;;5070047;28;20047;-86
2021/04/19 08:47:13;;;;;;;25.42;13.07;;;;;;;;;;5083154;28;20084;-86
2021/04/19 08:49:39;;;;;;;26.67;13.75;;;;;;;;;;5073447;28;20049;-86
2021/04/19 08:52:04;;;;;;;23.10;13.38;;;;;;;;;;5069643;28;20013;-87
2021/04/19 08:54:29;;;;;;;25.67;13.70;;;;;;;;;;5090869;28;20165;-85
2021/04/19 08:56:55;;;;;;;26.02;12.48;;;;;;;;;;5088590;28;20146;-86
2021/04/19 08:59:22;;;;;;;24.02;13.73;;;;;;;;;;5088668;28;20024;-86
2021/04/19 09:01:47;;;;;;;25.58;13.45;;;;;;;;;;5066796;28;20113;-87
2021/04/19 09:04:12;;;;;;;24.30;12.80;;;;;;;;;;5095301;28;20057;-83
2021/04/19 09:06:45;;;;;;;21.02;11.43;;;;;;;;;;5057695;28;20029;-87
2021/04/19 09:09:33;;;;;;;21.70;11.73;;;;;;;;;;5070737;28;20023;-87
2021/04/19 09:11:59;;;;;;;18.55;11.32;;;;;;;;;;4975882;28;20026;-86
2021/04/19 09:14:35;;;;;;;20.75;11.52;;;;;;;;;;4980941;28;20119;-86
2021/04/19 09:17:01;;;;;;;21.15;12.52;;;;;;;;;;4966453;28;20122;-86
2021/04/19 09:19:26;;;;;;;21.50;12.52;;;;;;;;;;4967985;28;20026;-86
2021/04/19 09:21:51;;;;;;;23.55;12.50;;;;;;;;;;4989514;28;20138;-86
2021/04/19 09:24:17;;;;;;;22.05;12.25;;;;;;;;;;4973511;28;20560;-86
2021/04/19 09:26:44;;;;;;;23.38;12.30;;;;;;;;;;4990087;28;20054;-87
2021/04/19 09:29:09;;;;;;;23.17;12.32;;;;;;;;;;4991149;28;20047;-87
2021/04/19 09:31:53;;;;;;;22.42;11.60;;;;;;;;;;5001668;28;20011;-86
2021/04/19 09:34:18;;;;;;;23.58;12.25;;;;;;;;;;4983203;28;20066;-87
2021/04/19 09:36:50;;;;;;;21.13;12.13;;;;;;;;;;4992559;28;20548;-89
2021/04/19 09:39:35;;;;;;;19.55;11.10;;;;;;;;;;4964963;28;20061;-88
2021/04/19 09:42:00;;;;;;;21.77;11.60;;;;;;;;;;4978807;28;20366;-88
2021/04/19 09:44:26;;;;;;;22.20;11.85;;;;;;;;;;5004921;28;20050;-85
2021/04/19 09:46:52;;;;;;;18.85;10.98;;;;;;;;;;4987506;28;20038;-88
2021/04/19 09:49:20;;;;;;;18.17;10.38;;;;;;;;;;5040108;28;20112;-87
2021/04/19 09:51:45;;;;;;;16.23;10.10;;;;;;;;;;5074891;28;20008;-88
2021/04/19 09:54:11;;;;;;;15.88;10.43;;;;;;;;;;5080888;28;20035;-87
2021/04/19 09:56:38;;;;;;;18.20;10.82;;;;;;;;;;5090556;28;20526;-89
2021/04/19 09:59:05;;;;;;;16.50;8.57;;;;;;;;;;5071054;28;20485;-87
2021/04/19 10:01:31;;;;;;;15.80;8.23;;;;;;;;;;5069403;28;20027;-86
2021/04/19 10:03:57;;;;;;;15.55;8.90;;;;;;;;;;5083826;28;20048;-87
2021/04/19 10:06:24;;;;;;;15.88;9.65;;;;;;;;;;5066500;28;20027;-86
2021/04/19 10:08:50;;;;;;;18.05;10.25;;;;;;;;;;5085837;28;20024;-87
2021/04/19 10:11:20;;;;;;;18.58;10.27;;;;;;;;;;5089106;28;20047;-88
2021/04/19 10:13:45;;;;;;;;;;;;;;;;;;5070851;28;20038;-85
2021/04/19 10:16:12;;;;;;;18.00;10.77;;;;;;;;;;5079266;28;19915;-86
2021/04/19 10:18:38;;;;;;;16.73;9.90;;;;;;;;;;5064152;28;20024;-86
2021/04/19 10:21:04;;;;;;;16.95;9.63;;;;;;;;;;5059220;28;20021;-87
2021/04/19 10:23:39;;;;;;;18.88;10.20;;;;;;;;;;5058138;28;20031;-87
2021/04/19 10:26:04;;;;;;;17.58;10.13;;;;;;;;;;5080705;28;20028;-87
2021/04/19 10:28:29;;;;;;;18.25;9.55;;;;;;;;;;5085276;28;20023;-87
2021/04/19 10:31:05;;;;;;;21.30;9.40;;;;;;;;;;5081769;28;20024;-87
2021/04/19 10:33:30;;;;;;;20.40;10.25;;;;;;;;;;5064975;28;20052;-87
2021/04/19 10:35:55;;;;;;;24.00;10.25;;;;;;;;;;5070662;28;20043;-86
2021/04/19 10:38:26;;;;;;;26.52;13.98;;;;;;;;;;5084791;28;20024;-85
2021/04/19 10:41:00;;;;;;;21.92;13.95;;;;;;;;;;5078734;28;20028;-87
2021/04/19 10:43:26;;;;;;;21.33;12.13;;;;;;;;;;5070559;28;20020;-87
2021/04/19 10:45:51;;;;;;;20.73;11.32;;;;;;;;;;5093820;28;20073;-86
2021/04/19 10:48:21;;;;;;;19.38;11.68;;;;;;;;;;5080511;28;20011;-86
2021/04/19 10:50:46;;;;;;;;;;;;;;;;;;5081274;28;20081;-87
2021/04/19 10:53:11;;;;;;;19.27;11.45;;;;;;;;;;5094244;28;19924;-88
2021/04/19 10:55:37;;;;;;;20.08;10.70;;;;;;;;;;5068225;28;20258;-87
2021/04/19 10:58:02;;;;;;;22.10;11.93;;;;;;;;;;5075381;28;20052;-87
2021/04/19 11:00:27;;;;;;;16.88;10.25;;;;;;;;;;5072728;28;20065;-85
2021/04/19 11:02:53;;;;;;;19.45;11.68;;;;;;;;;;5083018;28;20016;-85
2021/04/19 11:05:18;;;;;;;19.98;11.25;;;;;;;;;;5109330;28;20024;-86
2021/04/19 11:07:43;;;;;;;20.52;12.10;;;;;;;;;;5084672;28;20016;-85
2021/04/19 11:10:21;;;;;;;19.85;11.15;;;;;;;;;;5062970;28;20410;-85
2021/04/19 11:12:55;;;;;;;22.00;12.00;;;;;;;;;;5062582;28;20058;-87
2021/04/19 11:15:27;;;;;;;20.55;11.68;;;;;;;;;;5078766;28;20038;-88
2021/04/19 11:17:52;;;;;;;16.45;10.52;;;;;;;;;;5080226;28;20028;-86
2021/04/19 11:20:21;;;;;;;19.48;11.15;;;;;;;;;;5112099;28;20023;-86
2021/04/19 11:22:47;;;;;;;18.08;10.13;;;;;;;;;;5108886;28;20016;-85
2021/04/19 11:25:18;;;;;;;16.45;10.15;;;;;;;;;;5089745;28;20111;-86
2021/04/19 11:27:44;;;;;;;19.15;9.50;;;;;;;;;;5087048;28;20019;-86
2021/04/19 11:30:16;;;;;;;18.83;10.07;;;;;;;;;;5092925;28;20035;-85
2021/04/19 11:32:42;;;;;;;13.93;8.23;;;;;;;;;;5091780;28;20027;-86
2021/04/19 11:35:20;;;;;;;15.32;8.13;;;;;;;;;;5073684;28;20083;-85
2021/04/19 11:37:56;;;;;;;13.27;9.15;;;;;;;;;;5079265;28;20020;-86
2021/04/19 11:40:26;;;;;;;15.68;9.02;;;;;;;;;;5076767;28;20054;-85
2021/04/19 11:42:51;;;;;;;13.02;8.40;;;;;;;;;;5083907;28;20044;-86
2021/04/19 11:45:20;;;;;;;17.83;9.23;;;;;;;;;;5070872;28;20029;-86
2021/04/19 11:47:45;;;;;;;15.25;8.75;;;;;;;;;;5063118;28;20166;-85
2021/04/19 11:50:11;;;;;;;15.73;8.75;;;;;;;;;;5075122;28;20024;-82
2021/04/19 11:52:43;;;;;;;13.07;7.70;;;;;;;;;;5081756;28;20094;-86
2021/04/19 11:55:09;;;;;;;12.73;7.82;;;;;;;;;;5064715;28;20027;-89
2021/04/19 11:57:34;;;;;;;14.45;8.77;;;;;;;;;;5084758;28;20008;-90
2021/04/19 11:59:59;;;;;;;14.95;8.05;;;;;;;;;;5085355;28;20027;-88
2021/04/19 12:02:24;;;;;;;14.10;8.02;;;;;;;;;;5098092;28;20466;-87
2021/04/19 12:04:49;;;;;;;12.05;7.68;;;;;;;;;;5081757;28;20112;-86
2021/04/19 12:07:14;;;;;;;15.68;7.03;;;;;;;;;;5094296;28;20028;-87
2021/04/19 12:09:40;;;;;;;14.43;8.27;;;;;;;;;;5077115;28;20024;-84
2021/04/19 12:12:05;;;;;;;11.90;7.55;;;;;;;;;;5088992;28;20016;-82
2021/04/19 12:14:30;;;;;;;12.18;6.63;;;;;;;;;;5064723;28;20047;-81
2021/04/19 12:16:55;;;;;;;14.52;7.45;;;;;;;;;;5064416;28;20036;-82
2021/04/19 12:19:21;;;;;;;14.45;7.32;;;;;;;;;;5078917;28;20097;-81
2021/04/19 12:21:46;;;;;;;16.27;7.03;;;;;;;;;;5087427;28;20020;-78
2021/04/19 12:24:11;;;;;;;14.18;8.50;;;;;;;;;;5084204;28;20364;-79
2021/04/19 12:26:38;;;;;;;12.95;7.00;;;;;;;;;;5085757;28;20526;-80
2021/04/19 12:29:04;;;;;;;11.07;6.68;;;;;;;;;;5083475;28;20020;-80
2021/04/19 12:31:29;;;;;;;11.35;6.47;;;;;;;;;;5084286;28;20771;-79
2021/04/19 12:33:55;;;;;;;10.98;6.47;;;;;;;;;;5081762;28;20219;-80
2021/04/19 12:36:20;;;;;;;11.32;7.82;;;;;;;;;;5080790;28;20021;-80
2021/04/19 12:38:45;;;;;;;11.00;6.00;;;;;;;;;;5079130;28;20474;-79
2021/04/19 12:41:11;;;;;;;10.40;6.50;;;;;;;;;;5083529;28;20016;-81
2021/04/19 12:43:36;;;;;;;12.25;6.72;;;;;;;;;;5086771;28;20059;-80
2021/04/19 12:46:01;;;;;;;13.63;8.15;;;;;;;;;;5082805;28;20020;-80
2021/04/19 12:48:26;;;;;;;14.40;8.20;;;;;;;;;;5079916;28;20458;-79
2021/04/19 12:50:51;;;;;;;14.38;8.27;;;;;;;;;;5063156;28;20042;-81
2021/04/19 12:53:17;;;;;;;14.73;8.30;;;;;;;;;;5087059;28;20081;-80
2021/04/19 12:55:42;;;;;;;16.10;9.15;;;;;;;;;;5078792;28;20535;-82
2021/04/19 12:58:08;;;;;;;14.65;8.57;;;;;;;;;;5081673;28;20024;-81
2021/04/19 13:00:33;;;;;;;16.17;8.57;;;;;;;;;;5084094;28;20120;-80
2021/04/19 13:02:58;;;;;;;14.32;8.25;;;;;;;;;;5095329;28;20012;-80
2021/04/19 13:05:24;;;;;;;13.80;8.38;;;;;;;;;;5088022;28;20386;-79
2021/04/19 13:07:49;;;;;;;15.80;9.38;;;;;;;;;;5093336;28;20135;-81
2021/04/19 13:10:15;;;;;;;15.68;9.10;;;;;;;;;;5080126;28;20411;-81
2021/04/19 13:12:40;;;;;;;14.52;8.15;;;;;;;;;;5082195;28;20185;-80
2021/04/19 13:15:06;;;;;;;13.73;8.15;;;;;;;;;;5083778;28;20119;-81
2021/04/19 13:17:32;;;;;;;14.43;8.13;;;;;;;;;;5088956;28;20078;-81
2021/04/19 13:19:57;;;;;;;14.32;8.35;;;;;;;;;;5063444;28;20068;-81
2021/04/19 13:22:23;;;;;;;12.63;7.43;;;;;;;;;;5085802;28;20024;-80
2021/04/19 13:24:48;;;;;;;13.50;7.50;;;;;;;;;;5076361;28;20086;-80
2021/04/19 13:27:13;;;;;;;11.02;6.70;;;;;;;;;;5071906;28;20020;-81
2021/04/19 13:29:39;;;;;;;16.08;8.10;;;;;;;;;;5083761;28;20368;-79
2021/04/19 13:32:04;;;;;;;13.95;7.07;;;;;;;;;;5088424;28;20020;-80
2021/04/19 13:34:29;;;;;;;13.10;6.72;;;;;;;;;;5069267;28;20048;-77
2021/04/19 13:36:54;;;;;;;11.88;7.40;;;;;;;;;;5083333;28;20056;-80
2021/04/19 13:39:19;;;;;;;11.50;5.93;;;;;;;;;;5069041;28;20032;-81
2021/04/19 13:41:44;;;;;;;13.35;7.05;;;;;;;;;;5078527;28;20261;-80
2021/04/19 13:44:10;;;;;;;9.55;5.78;;;;;;;;;;5083285;28;20055;-82
2021/04/19 13:46:35;;;;;;;11.88;6.45;;;;;;;;;;5080104;28;20066;-82
2021/04/19 13:49:01;;;;;;;10.68;6.72;;;;;;;;;;5080854;28;20035;-81
2021/04/19 13:51:27;;;;;;;11.32;6.55;;;;;;;;;;5080506;28;20031;-81
2021/04/19 13:53:52;;;;;;;12.90;7.00;;;;;;;;;;5080506;28;20035;-80
2021/04/19 13:56:17;;;;;;;12.45;7.93;;;;;;;;;;5079082;28;20033;-79
2021/04/19 13:58:43;;;;;;;11.23;6.88;;;;;;;;;;5080956;28;20098;-81
2021/04/19 14:01:08;;;;;;;12.02;6.75;;;;;;;;;;5079344;28;20027;-82
2021/04/19 14:03:34;;;;;;;10.70;6.40;;;;;;;;;;5076949;28;20685;-80
2021/04/19 14:05:59;;;;;;;15.57;7.15;;;;;;;;;;5081084;28;20069;-82
2021/04/19 14:08:24;;;;;;;11.25;6.97;;;;;;;;;;5087543;28;20024;-82
2021/04/19 14:10:49;;;;;;;19.70;10.48;;;;;;;;;;5096230;28;20020;-82
2021/04/19 14:13:14;;;;;;;14.18;9.43;;;;;;;;;;5086367;28;20012;-80
2021/04/19 14:15:40;;;;;;;19.67;10.85;;;;;;;;;;5073604;28;20161;-83
2021/04/19 14:18:08;;;;;;;18.73;11.43;;;;;;;;;;5085396;28;20102;-82
2021/04/19 14:20:34;;;;;;;17.40;10.35;;;;;;;;;;5083814;28;20185;-82